Terminal Aerodrome Forecast
Issued by NWS

Home | Current Version | Previous Version | Text Only | Print | Product List | Glossary On
Versions: 1 2 3 4 5 6 7 8 9 10 11 12 13 14 15 16
000
FTUS43 KMPX 032333
TAFAXN
TAF
KAXN 032333Z 0400/0424 16013KT 5SM -SN OVC012
      TEMPO 0401/0405 2SM -SN OVC008
     FM040500 17010KT 6SM BR OVC006
     FM041500 22010KT P6SM OVC008
     FM042000 27011KT P6SM OVC015=

USA.gov is the U.S. government's official web portal to all federal, state and local government web resources and services.